createdAt,value
2023-05-05T00:02:12.700Z,101541.19
2023-05-05T00:04:39.063Z,101544.06
2023-05-05T00:07:05.409Z,101546.94
2023-05-05T00:09:31.750Z,101549.81
2023-05-05T00:11:58.090Z,101540.41
2023-05-05T00:14:24.420Z,101533.16
2023-05-05T00:16:50.812Z,101538.94
2023-05-05T00:19:17.159Z,101537.44
2023-05-05T00:21:43.493Z,101540.34
2023-05-05T00:24:10.160Z,101543.22
2023-05-05T00:26:36.507Z,101531.69
2023-05-05T00:29:03.397Z,101536.69
2023-05-05T00:31:29.792Z,101538.81
2023-05-05T00:33:56.275Z,101538.19
2023-05-05T00:36:22.868Z,101532.44
2023-05-05T00:38:49.208Z,101532.44
2023-05-05T00:41:15.557Z,101529.56
2023-05-05T00:43:42.097Z,101528.81
2023-05-05T00:46:26.977Z,101533.81
2023-05-05T00:48:53.502Z,101525.16
2023-05-05T00:51:20.266Z,101522.94
2023-05-05T00:53:47.163Z,101527.31
2023-05-05T00:56:13.525Z,101520.06
2023-05-05T00:58:40.792Z,101520.69
2023-05-05T01:01:07.688Z,101516.41
2023-05-05T01:03:35.500Z,101516.41
2023-05-05T01:06:05.368Z,101509.16
2023-05-05T01:08:38.506Z,101513.44
2023-05-05T01:11:25.132Z,101503.41
2023-05-05T01:14:03.317Z,101500.41
2023-05-05T01:16:30.878Z,101506.19
2023-05-05T01:19:16.014Z,101503.94
2023-05-05T01:25:42.599Z,101498.94
2023-05-05T01:28:19.589Z,101504.69
2023-05-05T01:31:04.953Z,101498.94
2023-05-05T01:33:33.096Z,101497.44
2023-05-05T01:36:02.525Z,101500.31
2023-05-05T01:38:32.448Z,101503.19
2023-05-05T01:41:04.922Z,101508.22
2023-05-05T01:43:31.751Z,101501.72
2023-05-05T01:45:58.116Z,101503.84
2023-05-05T01:48:24.530Z,101495.94
2023-05-05T01:50:50.880Z,101506.72
2023-05-05T01:53:17.574Z,101505.94
2023-05-05T01:55:43.968Z,101508.72
2023-05-05T01:58:10.330Z,101492.97
2023-05-05T02:00:36.786Z,101497.19
2023-05-05T02:03:04.365Z,101495.72
2023-05-05T02:05:30.891Z,101490.59
2023-05-05T02:07:57.851Z,101486.97
2023-05-05T02:10:24.233Z,101489.09
2023-05-05T02:12:51.147Z,101494.13
2023-05-05T02:15:17.858Z,101499.88
2023-05-05T02:17:44.295Z,101503.50
2023-05-05T02:20:10.923Z,101502.00
2023-05-05T02:22:37.434Z,101507.75
2023-05-05T02:25:03.863Z,101500.50
2023-05-05T02:27:30.223Z,101498.25
2023-05-05T02:29:57.696Z,101499.00
2023-05-05T02:32:27.704Z,101504.03
2023-05-05T02:34:54.649Z,101496.91
2023-05-05T02:37:22.020Z,101499.00
2023-05-05T02:39:58.685Z,101483.88
2023-05-05T02:42:32.234Z,101486.75
2023-05-05T02:45:00.022Z,101480.25
2023-05-05T02:47:28.326Z,101486.75
2023-05-05T02:49:54.760Z,101482.38
2023-05-05T02:52:21.133Z,101483.75
2023-05-05T02:54:47.575Z,101485.25
2023-05-05T02:57:17.990Z,101495.28
2023-05-05T02:59:52.199Z,101497.41
2023-05-05T03:02:42.016Z,101492.38
2023-05-05T03:05:11.112Z,101490.91
2023-05-05T03:07:42.864Z,101495.28
2023-05-05T03:10:10.199Z,101493.78
2023-05-05T03:12:45.272Z,101493.78
2023-05-05T03:15:22.296Z,101488.03
2023-05-05T03:17:49.917Z,101502.31
2023-05-05T03:20:16.391Z,101493.66
2023-05-05T03:22:46.128Z,101487.19
2023-05-05T03:25:13.775Z,101490.78
2023-05-05T03:27:40.743Z,101484.31
2023-05-05T03:30:07.998Z,101484.31
2023-05-05T03:32:38.657Z,101490.06
2023-05-05T03:35:05.377Z,101483.56
2023-05-05T03:37:33.675Z,101483.56
2023-05-05T03:40:00.279Z,101484.94
2023-05-05T03:42:27.096Z,101482.78
2023-05-05T03:44:53.815Z,101487.81
2023-05-05T03:47:24.545Z,101488.44
2023-05-05T03:49:51.490Z,101479.78
2023-05-05T03:52:18.124Z,101474.81
2023-05-05T03:54:46.034Z,101471.81
2023-05-05T03:57:12.402Z,101476.91
2023-05-05T03:59:38.785Z,101479.06
2023-05-05T04:02:05.452Z,101477.56
2023-05-05T04:04:31.925Z,101471.06
2023-05-05T04:06:58.357Z,101473.19
2023-05-05T04:09:24.730Z,101469.56
2023-05-05T04:11:51.090Z,101468.81
2023-05-05T04:14:17.503Z,101480.34
2023-05-05T04:16:43.976Z,101471.38
2023-05-05T04:19:12.952Z,101471.91
2023-05-05T04:21:40.071Z,101472.66
2023-05-05T04:24:06.769Z,101482.66
2023-05-05T04:26:33.137Z,101478.41
2023-05-05T04:28:59.638Z,101482.66
2023-05-05T04:31:26.093Z,101481.16
2023-05-05T04:33:52.501Z,101488.41
2023-05-05T04:36:19.236Z,101486.91
2023-05-05T04:38:46.372Z,101486.19
2023-05-05T04:41:12.853Z,101496.19
2023-05-05T04:43:41.507Z,101500.56
2023-05-05T04:46:07.972Z,101508.53
2023-05-05T04:48:37.056Z,101509.94
2023-05-05T04:51:04.598Z,101514.94
2023-05-05T04:53:31.176Z,101507.69
2023-05-05T04:55:57.552Z,101506.94
2023-05-05T04:58:23.916Z,101500.44
2023-05-05T05:00:50.307Z,101506.94
2023-05-05T05:03:18.497Z,101506.22
2023-05-05T05:05:44.929Z,101503.50
2023-05-05T05:08:11.329Z,101505.28
2023-05-05T05:10:39.449Z,101509.47
2023-05-05T05:13:05.816Z,101517.09
2023-05-05T05:15:32.196Z,101519.97
2023-05-05T05:17:58.946Z,101504.19
2023-05-05T05:20:25.329Z,101506.44
2023-05-05T05:22:51.799Z,101508.03
2023-05-05T05:25:20.342Z,101510.16
2023-05-05T05:27:55.275Z,101515.19
2023-05-05T05:30:32.890Z,101520.28
2023-05-05T05:32:59.419Z,101523.91
2023-05-05T05:35:25.929Z,101523.28
2023-05-05T05:37:52.688Z,101514.31
2023-05-05T05:40:19.743Z,101517.72
2023-05-05T05:42:46.474Z,101524.94
2023-05-05T05:45:12.959Z,101528.25
2023-05-05T05:47:39.759Z,101523.50
2023-05-05T05:50:07.046Z,101524.69
2023-05-05T05:52:36.071Z,101513.69
2023-05-05T05:55:04.557Z,101517.72
2023-05-05T05:57:31.130Z,101514.22
2023-05-05T05:59:59.216Z,101518.09
2023-05-05T06:02:27.228Z,101521.75
2023-05-05T06:04:54.016Z,101515.00
2023-05-05T06:07:20.937Z,101519.25
2023-05-05T06:09:47.329Z,101521.03
2023-05-05T06:12:14.690Z,101520.53
2023-05-05T06:14:41.208Z,101529.25
2023-05-05T06:17:08.169Z,101517.63
2023-05-05T06:19:35.128Z,101523.78
2023-05-05T06:22:01.541Z,101518.69
2023-05-05T06:24:27.905Z,101526.16
2023-05-05T06:26:54.367Z,101521.16
2023-05-05T06:29:20.989Z,101523.16
2023-05-05T06:31:47.471Z,101522.81
2023-05-05T06:34:13.907Z,101514.75
2023-05-05T06:36:40.345Z,101514.66
2023-05-05T06:39:07.125Z,101515.28
2023-05-05T06:41:33.505Z,101521.75
2023-05-05T06:44:00.119Z,101517.63
2023-05-05T06:46:26.493Z,101519.25
2023-05-05T06:48:52.985Z,101520.84
2023-05-05T06:51:19.702Z,101518.72
2023-05-05T06:53:46.143Z,101526.84
2023-05-05T06:56:12.497Z,101523.34
2023-05-05T06:58:38.836Z,101535.50
2023-05-05T07:01:05.265Z,101523.97
2023-05-05T07:03:31.694Z,101538.47
2023-05-05T07:05:58.090Z,101543.50
2023-05-05T07:08:24.750Z,101534.25
2023-05-05T07:10:51.288Z,101528.47
2023-05-05T07:13:17.789Z,101534.97
2023-05-05T07:15:46.435Z,101537.22
2023-05-05T07:18:13.468Z,101530.72
2023-05-05T07:20:39.918Z,101544.47
2023-05-05T07:23:06.277Z,101544.47
2023-05-05T07:25:32.622Z,101543.72
2023-05-05T07:27:58.980Z,101541.59
2023-05-05T07:30:28.053Z,101544.47
2023-05-05T07:32:55.073Z,101550.34
2023-05-05T07:35:21.709Z,101543.06
2023-05-05T07:37:48.085Z,101545.97
2023-05-05T07:40:14.484Z,101541.72
2023-05-05T07:42:40.969Z,101553.97
2023-05-05T07:45:07.647Z,101551.72
2023-05-05T07:47:34.028Z,101544.72
2023-05-05T07:50:00.697Z,101547.69
2023-05-05T07:52:43.660Z,101543.44
2023-05-05T07:55:12.753Z,101543.31
2023-05-05T07:57:39.134Z,101543.44
2023-05-05T08:00:05.814Z,101542.06
2023-05-05T08:02:38.510Z,101543.44
2023-05-05T08:05:05.124Z,101541.94
2023-05-05T08:07:31.613Z,101549.94
2023-05-05T08:09:57.993Z,101539.94
2023-05-05T08:12:24.743Z,101535.53
2023-05-05T08:14:51.080Z,101537.66
2023-05-05T08:17:17.437Z,101540.66
2023-05-05T08:19:43.810Z,101542.81
2023-05-05T08:22:10.151Z,101545.03
2023-05-05T08:24:36.519Z,101537.16
2023-05-05T08:27:03.626Z,101527.66
2023-05-05T08:29:29.976Z,101535.66
2023-05-05T08:31:56.538Z,101534.91
2023-05-05T08:34:22.921Z,101527.88
2023-05-05T08:36:50.857Z,101531.41
2023-05-05T08:39:17.239Z,101527.88
2023-05-05T08:41:43.702Z,101532.16
2023-05-05T08:44:10.107Z,101530.88
2023-05-05T08:46:36.641Z,101529.50
2023-05-05T08:49:03.916Z,101543.88
2023-05-05T08:51:31.562Z,101539.63
2023-05-05T08:53:58.730Z,101549.66
2023-05-05T08:56:26.767Z,101542.38
2023-05-05T08:58:53.137Z,101540.59
2023-05-05T09:01:19.590Z,101541.31
2023-05-05T09:03:46.234Z,101537.09
2023-05-05T09:06:12.623Z,101532.69
2023-05-05T09:08:39.070Z,101532.81
2023-05-05T09:11:05.524Z,101531.84
2023-05-05T09:13:31.966Z,101530.34
2023-05-05T09:15:58.629Z,101525.22
2023-05-05T09:18:25.181Z,101517.75
2023-05-05T09:20:51.646Z,101521.31
2023-05-05T09:23:18.731Z,101527.63
2023-05-05T09:25:45.955Z,101526.00
2023-05-05T09:28:16.056Z,101522.94
2023-05-05T09:30:43.372Z,101514.53
2023-05-05T09:33:09.794Z,101520.75
2023-05-05T09:35:51.760Z,101510.59
2023-05-05T09:38:21.436Z,101538.13
2023-05-05T09:40:48.499Z,101523.84
2023-05-05T09:43:15.721Z,101516.69
2023-05-05T09:45:42.117Z,101522.34
2023-05-05T09:48:08.517Z,101528.84
2023-05-05T09:50:43.837Z,101525.09
2023-05-05T09:53:10.607Z,101525.84
2023-05-05T09:55:38.014Z,101524.69
2023-05-05T09:58:33.828Z,101529.28
2023-05-05T10:01:00.310Z,101530.63
2023-05-05T10:03:26.693Z,101525.94
2023-05-05T10:05:53.946Z,101514.41
2023-05-05T10:08:20.742Z,101511.53
2023-05-05T10:10:49.347Z,101509.94
2023-05-05T10:13:15.873Z,101514.75
2023-05-05T10:15:42.686Z,101513.31
2023-05-05T10:18:09.073Z,101505.53
2023-05-05T10:20:36.236Z,101515.66
2023-05-05T10:23:02.795Z,101512.53
2023-05-05T10:25:31.122Z,101512.66
2023-05-05T10:27:59.260Z,101505.31
2023-05-05T10:30:31.997Z,101501.78
2023-05-05T10:33:18.563Z,101503.28
2023-05-05T10:35:51.605Z,101509.03
2023-05-05T10:38:17.938Z,101514.78
2023-05-05T10:40:45.338Z,101516.28
2023-05-05T10:43:12.500Z,101498.25
2023-05-05T10:45:38.921Z,101499.00
2023-05-05T10:48:06.560Z,101491.25
2023-05-05T10:50:33.410Z,101489.84
2023-05-05T10:53:19.227Z,101486.22
2023-05-05T10:56:04.453Z,101482.06
2023-05-05T10:58:41.099Z,101492.72
2023-05-05T11:01:13.875Z,101482.91
2023-05-05T11:03:40.272Z,101471.50
2023-05-05T11:06:09.825Z,101477.28
2023-05-05T11:08:36.570Z,101476.41
2023-05-05T11:11:02.939Z,101470.03
2023-05-05T11:13:29.302Z,101462.75
2023-05-05T11:15:55.755Z,101464.38
2023-05-05T11:18:37.986Z,101461.41
2023-05-05T11:21:15.064Z,101454.91
2023-05-05T11:23:42.864Z,101451.34
2023-05-05T11:26:09.330Z,101453.50
2023-05-05T11:28:36.128Z,101447.84
2023-05-05T11:31:02.460Z,101440.06
2023-05-05T11:33:38.207Z,101442.84
2023-05-05T11:36:07.969Z,101436.56
2023-05-05T11:38:53.161Z,101435.78
2023-05-05T11:41:23.585Z,101431.53
2023-05-05T11:43:49.980Z,101435.03
2023-05-05T11:46:16.909Z,101414.25
2023-05-05T11:48:43.908Z,101425.03
2023-05-05T11:51:13.776Z,101417.03
2023-05-05T11:53:41.638Z,101411.50
2023-05-05T11:56:08.543Z,101411.50
2023-05-05T11:58:35.880Z,101423.13
2023-05-05T12:01:08.208Z,101423.97
2023-05-05T12:03:35.756Z,101426.84
2023-05-05T12:06:02.672Z,101414.59
2023-05-05T12:08:29.055Z,101419.78
2023-05-05T12:11:04.872Z,101406.97
2023-05-05T12:13:31.242Z,101407.94
2023-05-05T12:16:07.592Z,101415.41
2023-05-05T12:18:34.010Z,101413.69
2023-05-05T12:21:00.512Z,101403.69
2023-05-05T12:23:29.966Z,101398.03
2023-05-05T12:25:56.312Z,101409.66
2023-05-05T12:28:22.675Z,101401.00
2023-05-05T12:30:58.750Z,101398.03
2023-05-05T12:33:25.156Z,101409.56
2023-05-05T12:35:51.536Z,101405.28
2023-05-05T12:38:17.888Z,101406.78
2023-05-05T12:40:48.075Z,101403.78
2023-05-05T12:43:33.480Z,101395.25
2023-05-05T12:46:04.241Z,101390.22
2023-05-05T12:48:30.779Z,101384.47
2023-05-05T12:51:10.153Z,101380.97
2023-05-05T12:53:36.506Z,101383.06
2023-05-05T12:56:03.095Z,101382.44
2023-05-05T12:58:31.719Z,101378.91
2023-05-05T13:01:10.698Z,101378.38
2023-05-05T13:03:37.227Z,101372.59
2023-05-05T13:06:18.318Z,101369.31
2023-05-05T13:08:44.697Z,101362.06
2023-05-05T13:11:11.032Z,101356.81
2023-05-05T13:13:37.372Z,101362.59
2023-05-05T13:16:03.720Z,101355.56
2023-05-05T13:18:30.071Z,101346.03
2023-05-05T13:20:56.406Z,101344.03
2023-05-05T13:23:24.124Z,101345.41
2023-05-05T13:25:52.795Z,101331.00
2023-05-05T13:28:19.230Z,101333.88
2023-05-05T13:30:45.609Z,101331.88
2023-05-05T13:33:11.963Z,101328.25
2023-05-05T13:35:38.322Z,101334.00
2023-05-05T13:38:04.666Z,101324.72
2023-05-05T13:40:31.182Z,101320.97
2023-05-05T13:42:57.549Z,101323.22
2023-05-05T13:45:23.902Z,101318.09
2023-05-05T13:47:51.016Z,101309.47
2023-05-05T13:50:18.238Z,101310.31
2023-05-05T13:52:44.826Z,101300.91
2023-05-05T13:55:11.290Z,101297.41
2023-05-05T13:57:37.640Z,101293.13
2023-05-05T14:00:04.346Z,101292.38
2023-05-05T14:02:34.126Z,101277.34
2023-05-05T14:05:00.528Z,101269.22
2023-05-05T14:07:28.025Z,101278.06
2023-05-05T14:09:54.380Z,101272.31
2023-05-05T14:12:20.779Z,101276.56
2023-05-05T14:14:47.283Z,101273.59
2023-05-05T14:17:13.635Z,101280.84
2023-05-05T14:19:39.994Z,101275.28
2023-05-05T14:22:06.538Z,101285.31
2023-05-05T14:24:32.881Z,101273.78
2023-05-05T14:26:59.233Z,101273.78
2023-05-05T14:29:25.563Z,101273.78
2023-05-05T14:31:52.201Z,101276.66
2023-05-05T14:34:18.612Z,101275.28
2023-05-05T14:36:44.965Z,101274.53
2023-05-05T14:39:11.350Z,101266.56
2023-05-05T14:41:37.710Z,101268.88
2023-05-05T14:44:04.072Z,101272.50
2023-05-05T14:46:31.178Z,101271.66
2023-05-05T14:48:58.689Z,101272.50
2023-05-05T14:51:25.045Z,101275.28
2023-05-05T14:53:51.398Z,101272.50
2023-05-05T14:56:17.865Z,101279.56
2023-05-05T14:58:44.236Z,101276.78
2023-05-05T15:01:10.727Z,101273.25
2023-05-05T15:03:37.234Z,101275.28
2023-05-05T15:06:04.719Z,101268.97
2023-05-05T15:08:31.167Z,101268.97
2023-05-05T15:10:57.498Z,101262.47
2023-05-05T15:13:23.868Z,101262.47
2023-05-05T15:15:50.581Z,101265.25
2023-05-05T15:18:17.278Z,101261.00
2023-05-05T15:20:43.662Z,101255.13
2023-05-05T15:23:10.009Z,101260.22
2023-05-05T15:25:36.553Z,101250.94
2023-05-05T15:28:02.921Z,101255.97
2023-05-05T15:30:29.255Z,101248.69
2023-05-05T15:32:55.780Z,101242.94
2023-05-05T15:35:22.335Z,101246.59
2023-05-05T15:37:48.674Z,101234.38
2023-05-05T15:40:15.130Z,101239.41
2023-05-05T15:42:41.482Z,101239.50
2023-05-05T15:45:09.276Z,101243.78
2023-05-05T15:47:35.966Z,101237.94
2023-05-05T15:50:02.386Z,101239.41
2023-05-05T15:52:28.784Z,101239.41
2023-05-05T15:54:55.124Z,101235.91
2023-05-05T15:57:21.558Z,101236.53
2023-05-05T15:59:50.550Z,101232.91
2023-05-05T16:02:16.945Z,101230.78
2023-05-05T16:04:43.330Z,101240.16
2023-05-05T16:07:09.680Z,101240.88
2023-05-05T16:09:36.026Z,101248.78
2023-05-05T16:12:02.707Z,101246.66
2023-05-05T16:14:29.070Z,101239.63
2023-05-05T16:16:55.494Z,101237.38
2023-05-05T16:19:23.350Z,101236.63
2023-05-05T16:21:49.721Z,101231.59
2023-05-05T16:24:16.589Z,101231.59
2023-05-05T16:26:43.493Z,101236.63
2023-05-05T16:29:09.838Z,101228.19
2023-05-05T16:31:36.243Z,101231.06
2023-05-05T16:34:02.744Z,101225.94
2023-05-05T16:36:29.132Z,101222.13
2023-05-05T16:38:56.086Z,101225.75
2023-05-05T16:41:22.575Z,101239.63
2023-05-05T16:43:49.081Z,101226.59
2023-05-05T16:46:15.581Z,101225.31
2023-05-05T16:48:41.954Z,101222.53
2023-05-05T16:51:08.310Z,101223.25
2023-05-05T16:53:34.653Z,101206.50
2023-05-05T16:56:01.118Z,101205.03
2023-05-05T16:58:27.498Z,101221.66
2023-05-05T17:00:54.576Z,101216.56
2023-05-05T17:03:21.097Z,101210.06
2023-05-05T17:05:49.834Z,101207.06
2023-05-05T17:08:16.671Z,101205.13
2023-05-05T17:10:43.133Z,101207.25
2023-05-05T17:13:09.692Z,101201.47
2023-05-05T17:15:36.872Z,101208.00
2023-05-05T17:18:06.464Z,101202.25
2023-05-05T17:20:32.880Z,101202.25
2023-05-05T17:22:59.408Z,101203.72
2023-05-05T17:25:28.461Z,101199.47
2023-05-05T17:27:54.981Z,101200.84
2023-05-05T17:30:21.313Z,101201.31
2023-05-05T17:32:47.736Z,101189.97
2023-05-05T17:35:14.151Z,101170.59
2023-05-05T17:37:40.624Z,101180.69
2023-05-05T17:40:07.203Z,101182.09
2023-05-05T17:42:33.550Z,101191.00
2023-05-05T17:45:00.166Z,101195.00
2023-05-05T17:47:26.681Z,101197.50
2023-05-05T17:49:54.027Z,101199.09
2023-05-05T17:52:23.217Z,101196.59
2023-05-05T17:54:49.579Z,101191.22
2023-05-05T17:57:20.962Z,101204.44
2023-05-05T17:59:49.447Z,101199.63
2023-05-05T18:02:16.346Z,101200.47
2023-05-05T18:04:42.881Z,101193.31
2023-05-05T18:07:10.280Z,101197.66
2023-05-05T18:09:36.617Z,101199.06
2023-05-05T18:12:03.620Z,101203.34
2023-05-05T18:14:30.372Z,101216.34
2023-05-05T18:16:56.728Z,101213.47
2023-05-05T18:19:23.083Z,101225.00
2023-05-05T18:21:51.411Z,101220.56
2023-05-05T18:24:20.393Z,101220.66
2023-05-05T18:26:47.467Z,101230.66
2023-05-05T18:29:15.920Z,101233.66
2023-05-05T18:31:43.820Z,101235.78
2023-05-05T18:34:10.205Z,101239.13
2023-05-05T18:36:36.571Z,101229.00
2023-05-05T18:39:02.917Z,101239.00
2023-05-05T18:41:29.260Z,101238.47
2023-05-05T18:43:55.592Z,101239.94
2023-05-05T18:46:22.486Z,101244.97
2023-05-05T18:48:48.958Z,101253.63
2023-05-05T18:51:15.317Z,101255.03
2023-05-05T18:53:41.897Z,101250.75
2023-05-05T18:56:08.294Z,101244.97
2023-05-05T18:58:34.643Z,101237.00
2023-05-05T19:01:01.262Z,101243.19
2023-05-05T19:03:27.683Z,101252.03
2023-05-05T19:05:54.186Z,101244.78
2023-05-05T19:08:20.723Z,101237.09
2023-05-05T19:10:47.088Z,101243.28
2023-05-05T19:13:13.465Z,101248.53
2023-05-05T19:15:39.850Z,101254.28
2023-05-05T19:18:06.406Z,101254.28
2023-05-05T19:20:32.794Z,101260.06
2023-05-05T19:23:03.576Z,101265.59
2023-05-05T19:25:30.270Z,101263.38
2023-05-05T19:27:56.606Z,101267.94
2023-05-05T19:30:23.006Z,101263.00
2023-05-05T19:32:49.395Z,101252.78
2023-05-05T19:35:15.750Z,101254.19
2023-05-05T19:37:42.111Z,101260.69
2023-05-05T19:40:08.913Z,101252.03
2023-05-05T19:42:35.435Z,101263.56
2023-05-05T19:45:01.770Z,101265.72
2023-05-05T19:47:28.138Z,101262.06
2023-05-05T19:49:54.573Z,101263.56
2023-05-05T19:52:23.675Z,101272.84
2023-05-05T19:54:50.004Z,101271.47
2023-05-05T19:57:17.036Z,101268.59
2023-05-05T19:59:43.364Z,101263.56
2023-05-05T20:02:10.707Z,101269.97
2023-05-05T20:04:37.050Z,101263.47
2023-05-05T20:07:03.892Z,101270.63
2023-05-05T20:09:30.231Z,101260.59
2023-05-05T20:11:57.797Z,101275.72
2023-05-05T20:14:24.148Z,101279.34
2023-05-05T20:16:50.476Z,101284.38
2023-05-05T20:19:17.211Z,101278.59
2023-05-05T20:21:43.542Z,101264.88
2023-05-05T20:24:10.064Z,101282.91
2023-05-05T20:26:36.632Z,101288.66
2023-05-05T20:29:03.009Z,101282.91
2023-05-05T20:31:29.458Z,101290.81
2023-05-05T20:33:55.849Z,101290.03
2023-05-05T20:36:22.342Z,101290.03
2023-05-05T20:38:48.722Z,101287.91
2023-05-05T20:41:15.119Z,101277.88
2023-05-05T20:43:41.472Z,101284.91
2023-05-05T20:46:10.868Z,101293.56
2023-05-05T20:48:42.286Z,101292.19
2023-05-05T20:51:09.201Z,101285.66
2023-05-05T20:53:35.631Z,101293.56
2023-05-05T20:56:02.067Z,101291.44
2023-05-05T20:58:29.084Z,101283.41
2023-05-05T21:00:55.455Z,101287.69
2023-05-05T21:03:21.845Z,101281.91
2023-05-05T21:05:48.216Z,101287.69
2023-05-05T21:08:14.627Z,101290.56
2023-05-05T21:10:41.036Z,101299.94
2023-05-05T21:13:07.557Z,101288.44
2023-05-05T21:15:36.919Z,101292.03
2023-05-05T21:18:03.517Z,101281.16
2023-05-05T21:20:29.961Z,101263.13
2023-05-05T21:22:56.568Z,101273.19
2023-05-05T21:25:23.024Z,101267.41
2023-05-05T21:27:49.379Z,101267.41
2023-05-05T21:30:16.012Z,101265.28
2023-05-05T21:32:42.904Z,101261.66
2023-05-05T21:35:09.349Z,101274.66
2023-05-05T21:37:41.602Z,101271.69
2023-05-05T21:40:13.533Z,101278.94
2023-05-05T21:42:40.957Z,101276.69
2023-05-05T21:45:07.503Z,101275.97
2023-05-05T21:47:33.903Z,101284.59
2023-05-05T21:50:00.294Z,101275.97
2023-05-05T21:52:26.646Z,101281.72
2023-05-05T21:54:52.984Z,101276.59
2023-05-05T21:57:19.317Z,101288.22
2023-05-05T21:59:45.700Z,101294.63
2023-05-05T22:02:12.092Z,101295.38
2023-05-05T22:04:38.467Z,101292.50
2023-05-05T22:07:04.809Z,101296.03
2023-05-05T22:09:31.226Z,101294.63
2023-05-05T22:11:57.570Z,101296.75
2023-05-05T22:14:23.916Z,101303.25
2023-05-05T22:16:50.282Z,101300.47
2023-05-05T22:19:17.335Z,101293.97
2023-05-05T22:21:43.787Z,101285.97
2023-05-05T22:24:10.135Z,101291.72
2023-05-05T22:26:36.518Z,101281.63
2023-05-05T22:29:02.864Z,101290.25
2023-05-05T22:31:30.666Z,101288.13
2023-05-05T22:33:57.186Z,101288.78
2023-05-05T22:36:23.584Z,101295.28
2023-05-05T22:38:49.922Z,101290.16
2023-05-05T22:41:16.247Z,101288.78
2023-05-05T22:43:42.604Z,101293.78
2023-05-05T22:46:08.966Z,101279.38
2023-05-05T22:48:35.834Z,101275.00
2023-05-05T22:51:03.450Z,101285.78
2023-05-05T22:53:29.821Z,101280.03
2023-05-05T22:55:58.187Z,101279.28
2023-05-05T22:58:24.945Z,101271.41
2023-05-05T23:00:51.324Z,101274.28
2023-05-05T23:03:17.689Z,101271.41
2023-05-05T23:05:44.013Z,101265.53
2023-05-05T23:08:10.356Z,101267.75
2023-05-05T23:10:36.700Z,101264.97
2023-05-05T23:13:03.050Z,101261.34
2023-05-05T23:15:30.003Z,101262.75
2023-05-05T23:17:56.393Z,101261.25
2023-05-05T23:20:22.789Z,101246.75
2023-05-05T23:22:49.151Z,101238.09
2023-05-05T23:25:15.493Z,101244.63
2023-05-05T23:27:41.912Z,101246.00
2023-05-05T23:30:08.646Z,101245.25
2023-05-05T23:32:34.982Z,101248.16
2023-05-05T23:35:01.372Z,101251.78
2023-05-05T23:37:27.709Z,101248.16
2023-05-05T23:39:54.093Z,101248.16
2023-05-05T23:42:20.490Z,101258.16
2023-05-05T23:44:46.849Z,101256.69
2023-05-05T23:47:13.185Z,101254.53
2023-05-05T23:49:39.520Z,101246.56
2023-05-05T23:52:05.872Z,101247.31
2023-05-05T23:54:32.276Z,101252.31
2023-05-05T23:57:00.222Z,101245.81
2023-05-05T23:59:26.570Z,101250.81
